logo
Search for airport 
image banner adimage banner adimage banner ad
image banner ad

LZTN - Trencin

Located in Trencin, Slovakia

ICAO - LZTN, IATA -

Data provided by Airmate  

General information

Coordinates: N48°51'51" E17°59'32"
Elevation is 675 feet MSL.
Magnetic variation is 4.3523° East
View others Airports in Trencín

Operational data

Special qualification required
Current time UTC:
Current local time:
Weather at : LZPP - Piestany ( 29 km )
METAR: LZPP 170700Z 32012KT 9999 SCT015 BKN035 08/03 Q1003
TAF: TAF LZPP 170515Z 1706/1715 30005KT 9999 FEW008 BKN020 BKN035 BECMG 1707/1709 36012KT TEMPO 1711/1715 -SHRA BKN030TCU
View NOTAMs / SUP AIP / TFR affecting this airport [VIEW]
Communications frequencies: [VIEW]

Runways:

RWY identifierQFULength (ft)Width (ft)SurfaceLDA (ft)
04656298CONC
22656298CONC
03R3182230GRASS
21L3182230GRASS
03L3182230GRASS
21R3182230GRASS

Airport contact information

Address: Trencin Slovakia

Other aviation service providers

Flight schools

Chudý Ján

Chudý Ján
chudy.jan@gmail.com+421465470500
+421907226126

Seagle Air

Seagle Air

Aviation club (not for profit)

Aeroklub Trenčín

Aeroklub Trenčín

Satellite view of LZTN